Time;durP1;ratioP1;P1;durP2;ratioP2;P2;SDS_P1;SDS_P2;PMS_P1;PMS_P2;Temp;Humidity;BMP_temperature;BMP_pressure;BME280_temperature;BME280_humidity;BME280_pressure;Samples;Min_cycle;Max_cycle;Signal;HPM_P1;HPM_P2
2021/09/22 00:02:22;;;;;;;7.30;1.10;;;;;;;6.78;100.00;100688.92;1793032;79;20878;-52
2021/09/22 00:04:50;;;;;;;2.92;1.05;;;;;;;6.79;100.00;100690.64;1789622;79;21028;-52
2021/09/22 00:07:16;;;;;;;3.40;0.80;;;;;;;6.80;100.00;100694.05;1708450;82;20980;-52
2021/09/22 00:09:43;;;;;;;5.20;0.98;;;;;;;6.80;100.00;100687.62;1723975;82;20937;-52
2021/09/22 00:12:11;;;;;;;0.88;0.70;;;;;;;6.79;100.00;100689.35;1719193;82;21479;-53
2021/09/22 00:14:38;;;;;;;2.98;0.80;;;;;;;6.77;100.00;100684.64;1738276;82;20961;-53
2021/09/22 00:17:05;;;;;;;1.65;0.72;;;;;;;6.78;100.00;100688.05;1712849;82;21059;-53
2021/09/22 00:19:32;;;;;;;0.80;0.60;;;;;;;6.76;100.00;100685.49;1735464;82;20961;-53
2021/09/22 00:21:59;;;;;;;0.80;0.80;;;;;;;6.75;100.00;100683.78;1735650;82;20989;-52
2021/09/22 00:24:27;;;;;;;0.98;0.98;;;;;;;6.76;100.00;100683.77;1727321;82;20991;-53
2021/09/22 00:26:54;;;;;;;3.22;0.95;;;;;;;6.75;100.00;100681.20;1777638;79;20921;-52
2021/09/22 00:29:22;;;;;;;2.22;0.90;;;;;;;6.75;100.00;100679.92;1786178;79;21019;-53
2021/09/22 00:31:48;;;;;;;4.58;0.80;;;;;;;6.75;100.00;100678.19;1792854;79;21016;-53
2021/09/22 00:34:16;;;;;;;2.85;0.88;;;;;;;6.76;100.00;100669.61;1721006;82;20945;-53
2021/09/22 00:36:44;;;;;;;2.35;1.20;;;;;;;6.76;100.00;100669.61;1786314;79;20929;-53
2021/09/22 00:39:12;;;;;;;1.07;0.90;;;;;;;6.76;100.00;100677.77;1750994;79;20979;-53
2021/09/22 00:41:38;;;;;;;4.42;1.10;;;;;;;6.76;100.00;100671.34;1789959;79;21114;-53
2021/09/22 00:44:05;;;;;;;4.75;1.00;;;;;;;6.75;100.00;100670.91;1721857;82;20881;-52
2021/09/22 00:46:31;;;;;;;13.03;1.98;;;;;;;6.75;100.00;100669.62;1791658;79;20985;-53
2021/09/22 00:48:59;;;;;;;2.58;1.57;;;;;;;6.74;100.00;100666.63;1730413;82;20972;-53
2021/09/22 00:51:27;;;;;;;1.47;1.12;;;;;;;6.73;100.00;100672.62;1698728;83;21032;-53
2021/09/22 00:53:54;;;;;;;7.67;1.37;;;;;;;6.71;100.00;100670.48;1720150;82;21737;-53
2021/09/22 00:56:21;;;;;;;7.95;1.67;;;;;;;6.71;100.00;100664.05;1708896;82;21664;-53
2021/09/22 00:58:48;;;;;;;7.87;1.60;;;;;;;6.71;100.00;100667.91;1727792;83;21530;-53
2021/09/22 01:01:15;;;;;;;4.33;1.65;;;;;;;6.70;100.00;100666.20;1758932;79;20949;-53
2021/09/22 01:03:42;;;;;;;9.35;2.08;;;;;;;6.68;100.00;100659.75;1783700;79;20989;-53
2021/09/22 01:06:08;;;;;;;1.90;1.47;;;;;;;6.67;100.00;100655.47;1717830;83;21122;-53
2021/09/22 01:08:35;;;;;;;1.32;1.22;;;;;;;6.68;100.00;100660.16;1719711;83;20971;-52
2021/09/22 01:11:02;;;;;;;2.40;0.98;;;;;;;6.67;100.00;100661.02;1774367;79;21334;-52
2021/09/22 01:13:28;;;;;;;2.12;1.17;;;;;;;6.65;100.00;100656.30;1774286;79;21527;-53
2021/09/22 01:15:55;;;;;;;1.77;1.37;;;;;;;6.64;100.00;100662.31;1728238;82;20984;-53
2021/09/22 01:18:23;;;;;;;1.25;1.15;;;;;;;6.63;100.00;100657.61;1716179;82;20963;-53
2021/09/22 01:20:55;;;;;;;3.08;1.42;;;;;;;6.64;100.00;100656.75;1790388;79;21004;-53
2021/09/22 01:23:25;;;;;;;2.55;1.27;;;;;;;6.63;100.00;100661.47;1771081;80;20976;-53
2021/09/22 01:25:53;;;;;;;17.07;1.80;;;;;;;6.60;100.00;100654.59;1784358;79;21661;-53
2021/09/22 01:28:26;;;;;;;4.12;1.60;;;;;;;6.59;100.00;100663.16;1776454;79;21015;-53
2021/09/22 01:30:53;;;;;;;5.78;1.65;;;;;;;6.57;100.00;100660.18;1783303;79;21009;-53
2021/09/22 01:33:22;;;;;;;7.30;1.60;;;;;;;6.54;100.00;100657.16;1714619;82;21561;-53
2021/09/22 01:35:51;;;;;;;3.30;1.60;;;;;;;6.53;100.00;100654.58;1729245;82;21542;-53
2021/09/22 01:38:25;;;;;;;2.52;1.17;;;;;;;6.53;100.00;100661.00;1783470;79;20970;-53
2021/09/22 01:41:03;;;;;;;5.80;1.70;;;;;;;6.52;100.00;100656.30;1779119;79;21009;-52
2021/09/22 01:43:31;;;;;;;4.55;1.35;;;;;;;6.51;100.00;100657.58;1711174;82;21203;-53
2021/09/22 01:45:59;;;;;;;15.85;2.30;;;;;;;6.52;100.00;100655.43;1779489;79;21589;-53
2021/09/22 01:48:26;;;;;;;1.45;1.00;;;;;;;6.51;100.00;100646.00;1761831;79;20936;-53
2021/09/22 01:50:57;;;;;;;0.70;0.70;;;;;;;6.50;100.00;100648.14;1759401;79;21015;-53
2021/09/22 01:53:26;;;;;;;4.03;1.12;;;;;;;6.50;100.00;100653.28;1783922;79;21027;-53
2021/09/22 01:55:54;;;;;;;4.12;1.07;;;;;;;6.50;100.00;100653.28;1784131;79;21182;-53
2021/09/22 01:58:21;;;;;;;4.03;0.95;;;;;;;6.48;100.00;100652.02;1723956;83;21019;-53
2021/09/22 02:00:57;;;;;;;1.75;0.93;;;;;;;6.49;100.00;100651.58;1780429;79;20999;-52
2021/09/22 02:03:29;;;;;;;8.65;1.25;;;;;;;6.50;100.00;100650.30;1768650;79;20980;-52
2021/09/22 02:06:04;;;;;;;4.60;1.50;;;;;;;6.48;100.00;100655.88;1786615;79;20929;-52
2021/09/22 02:08:31;;;;;;;13.45;1.30;;;;;;;6.47;100.00;100649.02;1788021;79;21118;-52
2021/09/22 02:11:00;;;;;;;7.67;1.35;;;;;;;6.46;100.00;100657.14;1776712;79;21007;-52
2021/09/22 02:13:28;;;;;;;7.80;1.62;;;;;;;6.46;100.00;100652.00;1767096;80;21477;-52
2021/09/22 02:15:54;;;;;;;10.28;1.80;;;;;;;6.46;100.00;100653.73;1770772;80;21194;-52
2021/09/22 02:18:24;;;;;;;4.05;1.00;;;;;;;6.45;100.00;100648.16;1778439;80;21568;-52
2021/09/22 02:20:51;;;;;;;7.67;1.12;;;;;;;6.46;100.00;100651.16;1763077;79;21819;-52
2021/09/22 02:23:20;;;;;;;5.35;1.10;;;;;;;6.44;100.00;100649.86;1766452;80;20944;-52
2021/09/22 02:25:47;;;;;;;6.67;1.22;;;;;;;6.46;100.00;100646.02;1779243;80;20968;-52
2021/09/22 02:28:15;;;;;;;4.85;0.80;;;;;;;6.45;100.00;100647.72;1783581;79;20890;-53
2021/09/22 02:30:43;;;;;;;8.23;1.20;;;;;;;6.46;100.00;100652.00;1788283;79;21470;-52
2021/09/22 02:33:10;;;;;;;19.52;1.90;;;;;;;6.45;100.00;100649.00;1781293;79;21122;-53
2021/09/22 02:35:39;;;;;;;5.22;1.20;;;;;;;6.46;100.00;100651.16;1767184;79;20912;-53
2021/09/22 02:38:07;;;;;;;15.10;1.98;;;;;;;6.45;100.00;100650.73;1762871;79;20947;-52
2021/09/22 02:40:36;;;;;;;16.48;2.05;;;;;;;6.45;100.00;100643.02;1778730;79;20894;-52
2021/09/22 02:43:03;;;;;;;3.47;1.27;;;;;;;6.45;100.00;100650.28;1768696;80;21119;-52
2021/09/22 02:45:32;;;;;;;5.47;0.95;;;;;;;6.46;100.00;100653.73;1783902;80;21073;-52
2021/09/22 02:47:58;;;;;;;9.53;1.07;;;;;;;6.45;100.00;100648.16;1780988;80;20973;-53
2021/09/22 02:50:27;;;;;;;11.20;1.10;;;;;;;6.43;100.00;100647.27;1777938;80;20925;-53
2021/09/22 02:52:53;;;;;;;12.58;1.80;;;;;;;6.43;100.00;100646.86;1779803;80;20896;-52
2021/09/22 02:55:21;;;;;;;22.98;2.30;;;;;;;6.45;100.00;100653.30;1783478;80;21020;-52
2021/09/22 02:57:48;;;;;;;11.90;1.57;;;;;;;6.46;100.00;100652.45;1774684;80;21048;-52
2021/09/22 03:00:16;;;;;;;3.27;0.78;;;;;;;6.44;100.00;100655.00;1779580;80;20929;-52
2021/09/22 03:02:43;;;;;;;13.28;1.25;;;;;;;6.45;100.00;100653.30;1691670;82;20917;-53
2021/09/22 03:05:10;;;;;;;18.98;1.50;;;;;;;6.44;100.00;100656.70;1726196;82;20909;-52
2021/09/22 03:07:36;;;;;;;9.43;1.72;;;;;;;6.43;100.00;100654.98;1707078;82;20889;-53
2021/09/22 03:10:05;;;;;;;11.85;2.12;;;;;;;6.41;100.00;100661.42;1736406;82;21165;-52
2021/09/22 03:12:31;;;;;;;19.32;1.85;;;;;;;6.42;100.00;100658.41;1693771;83;21142;-53
2021/09/22 03:14:59;;;;;;;1.17;0.80;;;;;;;6.42;100.00;100662.27;1771561;80;20968;-52
2021/09/22 03:17:28;;;;;;;5.28;1.25;;;;;;;6.41;100.00;100656.28;1775794;79;20975;-52
2021/09/22 03:19:56;;;;;;;5.45;1.67;;;;;;;6.38;100.00;100653.71;1797578;79;20948;-52
2021/09/22 03:22:23;;;;;;;2.62;0.95;;;;;;;6.36;100.00;100651.98;1770854;79;21857;-52
2021/09/22 03:24:54;;;;;;;1.77;0.80;;;;;;;6.37;100.00;100652.41;1786197;79;20977;-52
2021/09/22 03:27:21;;;;;;;11.25;1.37;;;;;;;6.37;100.00;100652.41;1792160;79;20983;-52
2021/09/22 03:29:48;;;;;;;19.23;3.05;;;;;;;6.37;100.00;100650.71;1788404;79;20973;-52
2021/09/22 03:32:15;;;;;;;10.03;1.52;;;;;;;6.37;100.00;100660.13;1775363;80;20853;-52
2021/09/22 03:34:42;;;;;;;7.03;1.37;;;;;;;6.38;100.00;100656.69;1784764;79;21144;-52
2021/09/22 03:37:10;;;;;;;5.20;1.42;;;;;;;6.40;100.00;100662.70;1778203;79;21058;-52
2021/09/22 03:39:37;;;;;;;16.07;2.25;;;;;;;6.39;100.00;100656.71;1783008;80;21664;-52
2021/09/22 03:42:05;;;;;;;15.35;2.12;;;;;;;6.40;100.00;100664.85;1773022;80;21534;-52
2021/09/22 03:44:32;;;;;;;7.12;1.77;;;;;;;6.41;100.00;100656.28;1775154;80;21040;-52
2021/09/22 03:46:59;;;;;;;7.33;1.50;;;;;;;6.42;100.00;100655.84;1780371;79;21181;-52
2021/09/22 03:49:26;;;;;;;14.78;1.67;;;;;;;6.41;100.00;100651.55;1791748;79;20985;-53
2021/09/22 03:51:53;;;;;;;7.87;1.47;;;;;;;6.42;100.00;100656.72;1671174;83;21530;-52
2021/09/22 03:54:20;;;;;;;2.90;1.30;;;;;;;6.43;100.00;100654.57;1798280;79;20997;-53
2021/09/22 03:56:48;;;;;;;1.95;1.40;;;;;;;6.43;100.00;100655.86;1773106;79;21533;-52
2021/09/22 03:59:16;;;;;;;15.65;1.98;;;;;;;6.43;100.00;100644.70;1727488;82;22045;-52
2021/09/22 04:01:42;;;;;;;1.27;1.27;;;;;;;6.41;100.00;100651.55;1778997;79;20969;-52
2021/09/22 04:04:11;;;;;;;8.33;2.00;;;;;;;6.41;100.00;100651.55;1766948;79;21559;-52
2021/09/22 04:06:38;;;;;;;4.20;0.90;;;;;;;6.41;100.00;100655.41;1777360;79;21565;-52
2021/09/22 04:09:04;;;;;;;3.75;1.57;;;;;;;6.40;100.00;100646.85;1706309;82;21533;-52
2021/09/22 04:11:33;;;;;;;1.80;1.20;;;;;;;6.40;100.00;100654.98;1784288;79;21450;-52
2021/09/22 04:14:00;;;;;;;2.45;1.17;;;;;;;6.40;100.00;100648.55;1760917;80;21592;-52
2021/09/22 04:16:27;;;;;;;1.25;1.15;;;;;;;6.39;100.00;100650.28;1685153;82;22178;-52
2021/09/22 04:18:55;;;;;;;2.50;1.27;;;;;;;6.39;100.00;100653.27;1720477;82;21527;-52
2021/09/22 04:21:23;;;;;;;2.58;1.25;;;;;;;6.40;100.00;100646.85;1716931;82;21558;-52
2021/09/22 04:23:51;;;;;;;5.53;1.57;;;;;;;6.40;100.00;100647.27;1707378;82;21833;-52
2021/09/22 04:26:17;;;;;;;10.48;2.00;;;;;;;6.38;100.00;100650.27;1718800;83;21482;-52
2021/09/22 04:28:47;;;;;;;10.43;1.55;;;;;;;6.38;100.00;100649.85;1775602;79;20924;-52
2021/09/22 04:31:32;;;;;;;6.37;1.70;;;;;;;6.37;100.00;100654.98;1773410;79;20897;-53
2021/09/22 04:34:04;;;;;;;8.05;2.10;;;;;;;6.36;100.00;100654.55;1780170;79;20940;-53
2021/09/22 04:36:49;;;;;;;4.03;1.32;;;;;;;6.32;100.00;100657.56;1784009;79;21106;-52
2021/09/22 04:39:35;;;;;;;5.35;1.40;;;;;;;6.30;100.00;100656.26;1780776;79;20924;-53
2021/09/22 04:42:20;;;;;;;8.08;1.22;;;;;;;6.31;100.00;100650.26;1783235;79;21157;-51
2021/09/22 04:44:49;;;;;;;14.68;2.55;;;;;;;6.31;100.00;100650.67;1747708;80;21513;-52
2021/09/22 04:47:35;;;;;;;17.32;2.60;;;;;;;6.28;100.00;100650.25;1779529;79;21080;-52
2021/09/22 04:50:21;;;;;;;31.20;2.85;;;;;;;6.27;100.00;100657.54;1783608;79;21153;-52
2021/09/22 04:53:07;;;;;;;20.30;1.82;;;;;;;6.27;100.00;100654.09;1791903;79;27638;-51
2021/09/22 04:55:52;;;;;;;3.80;1.35;;;;;;;6.28;100.00;100654.52;1774147;79;20921;-52
2021/09/22 04:58:36;;;;;;;1.98;1.60;;;;;;;6.30;100.00;100650.24;1779904;79;20868;-53
2021/09/22 05:01:22;;;;;;;2.27;1.50;;;;;;;6.30;100.00;100654.97;1778244;79;20972;-53
2021/09/22 05:04:08;;;;;;;2.55;1.40;;;;;;;6.28;100.00;100649.38;1725987;83;21187;-52
2021/09/22 05:06:52;;;;;;;10.05;2.40;;;;;;;6.28;100.00;100653.23;1773271;79;20917;-53
2021/09/22 05:09:37;;;;;;;0.87;0.87;;;;;;;6.31;100.00;100657.10;1779340;79;21004;-52
2021/09/22 05:12:24;;;;;;;1.92;0.98;;;;;;;6.32;100.00;100649.41;1801707;79;20890;-52
2021/09/22 05:15:10;;;;;;;0.90;0.90;;;;;;;6.32;100.00;100645.55;1787295;79;21017;-52
2021/09/22 05:17:57;;;;;;;1.65;1.10;;;;;;;6.38;100.00;100645.12;1788555;79;20973;-52
2021/09/22 05:20:43;;;;;;;1.00;1.00;;;;;;;6.39;100.00;100650.70;1778146;79;20957;-52
2021/09/22 05:23:29;;;;;;;4.00;1.30;;;;;;;6.45;100.00;100648.16;1797098;79;20973;-52
2021/09/22 05:26:15;;;;;;;1.67;1.20;;;;;;;6.52;100.00;100648.59;1785645;79;21510;-52
2021/09/22 05:28:49;;;;;;;1.55;1.00;;;;;;;6.56;100.00;100654.58;1752402;79;20922;-52
2021/09/22 05:31:34;;;;;;;2.52;1.05;;;;;;;6.59;100.00;100660.59;1785751;79;21225;-52
2021/09/22 05:34:19;;;;;;;7.03;1.55;;;;;;;6.56;100.00;100664.86;1726667;83;21554;-52
2021/09/22 05:37:05;;;;;;;1.95;1.22;;;;;;;6.53;100.00;100658.43;1742973;81;20969;-52
2021/09/22 05:39:51;;;;;;;3.45;1.45;;;;;;;6.54;100.00;100657.16;1779150;79;21015;-52
2021/09/22 05:42:36;;;;;;;2.58;1.30;;;;;;;6.52;100.00;100656.30;1729841;83;20979;-52
2021/09/22 05:45:21;;;;;;;10.28;1.47;;;;;;;6.56;100.00;100652.00;1721391;82;21916;-52
2021/09/22 05:48:06;;;;;;;4.10;1.60;;;;;;;6.61;100.00;100645.17;1781406;79;21435;-52
2021/09/22 05:50:50;;;;;;;4.40;1.57;;;;;;;6.64;100.00;100645.17;1727812;83;21020;-52
2021/09/22 05:53:25;;;;;;;4.65;1.27;;;;;;;6.71;100.00;100648.62;1741963;79;20992;-52
2021/09/22 05:56:11;;;;;;;0.75;0.75;;;;;;;6.72;100.00;100649.05;1771169;80;20961;-52
2021/09/22 05:58:52;;;;;;;4.30;1.65;;;;;;;6.73;100.00;100644.33;1748921;80;22575;-52
2021/09/22 06:01:37;;;;;;;3.08;1.27;;;;;;;6.75;100.00;100647.75;1775906;79;21226;-51
2021/09/22 06:04:22;;;;;;;2.33;1.20;;;;;;;6.76;100.00;100648.19;1778023;79;20983;-54
2021/09/22 06:07:02;;;;;;;4.92;1.30;;;;;;;6.75;100.00;100647.31;1780132;79;21667;-51
2021/09/22 06:09:32;;;;;;;2.20;1.12;;;;;;;6.73;100.00;100650.31;1728147;79;21023;-51
2021/09/22 06:12:03;;;;;;;1.00;0.93;;;;;;;6.77;100.00;100647.33;1780563;79;20913;-52
2021/09/22 06:14:30;;;;;;;23.02;2.22;;;;;;;6.78;100.00;100646.47;1791171;79;20932;-51
2021/09/22 06:16:59;;;;;;;7.53;1.37;;;;;;;6.77;100.00;100648.61;1788001;79;20940;-51
2021/09/22 06:19:27;;;;;;;1.50;0.80;;;;;;;6.77;100.00;100646.04;1789731;79;21709;-52
2021/09/22 06:21:55;;;;;;;3.75;1.20;;;;;;;6.78;100.00;100649.45;1776590;79;21423;-51
2021/09/22 06:24:23;;;;;;;6.58;1.17;;;;;;;6.75;100.00;100654.19;1790799;79;22640;-51
2021/09/22 06:26:55;;;;;;;11.25;1.40;;;;;;;6.72;100.00;100654.19;1788316;79;21087;-51
2021/09/22 06:29:22;;;;;;;7.12;1.20;;;;;;;6.72;100.00;100661.91;1772946;79;21007;-51
2021/09/22 06:31:49;;;;;;;4.95;1.20;;;;;;;6.75;100.00;100655.48;1799145;79;21050;-51
2021/09/22 06:34:17;;;;;;;2.72;0.85;;;;;;;6.83;100.00;100654.20;1765491;80;20964;-52
2021/09/22 06:36:44;;;;;;;1.40;1.05;;;;;;;6.89;100.00;100656.31;1782600;80;21153;-52
2021/09/22 06:39:10;;;;;;;3.22;1.22;;;;;;;6.99;100.00;100652.48;1775841;79;20961;-52
2021/09/22 06:41:37;;;;;;;4.10;1.20;;;;;;;7.10;100.00;100649.45;1777543;79;20971;-51
2021/09/22 06:44:04;;;;;;;1.50;0.88;;;;;;;7.19;100.00;100646.85;1729126;83;20981;-51
2021/09/22 06:46:32;;;;;;;2.42;1.12;;;;;;;7.31;100.00;100650.28;1764076;79;20952;-51
2021/09/22 06:48:59;;;;;;;1.00;0.90;;;;;;;7.44;100.00;100656.27;1766877;80;21157;-51
2021/09/22 06:51:25;;;;;;;2.08;1.25;;;;;;;7.58;100.00;100656.23;1775343;80;20906;-51
2021/09/22 06:53:52;;;;;;;1.30;1.20;;;;;;;7.65;100.00;100656.63;1798232;79;20944;-51
2021/09/22 06:56:19;;;;;;;2.98;1.20;;;;;;;7.72;100.00;100657.06;1779256;79;20988;-51
2021/09/22 06:58:46;;;;;;;1.17;1.07;;;;;;;7.79;100.00;100650.59;1784175;79;21383;-51
2021/09/22 07:01:13;;;;;;;2.72;1.60;;;;;;;7.87;100.00;100655.27;1786555;79;21775;-51
2021/09/22 07:03:40;;;;;;;3.50;2.00;;;;;;;7.93;100.00;100652.66;1773648;80;21478;-51
2021/09/22 07:06:09;;;;;;;4.80;1.80;;;;;;;7.98;100.00;100657.39;1764917;79;20934;-51
2021/09/22 07:08:36;;;;;;;10.80;2.30;;;;;;;8.03;100.00;100665.08;1793971;79;21004;-51
2021/09/22 07:11:02;;;;;;;2.15;1.67;;;;;;;7.92;100.00;100662.55;1779527;79;21659;-51
2021/09/22 07:13:31;;;;;;;8.55;2.67;;;;;;;7.77;100.00;100662.18;1784769;79;21758;-52
2021/09/22 07:15:58;;;;;;;11.08;2.50;;;;;;;7.68;100.00;100663.06;1758715;79;20945;-52
2021/09/22 07:18:26;;;;;;;8.05;2.10;;;;;;;7.67;100.00;100665.21;1783420;79;20941;-51
2021/09/22 07:20:53;;;;;;;17.87;1.87;;;;;;;7.73;100.00;100662.64;1792802;79;21000;-52
2021/09/22 07:23:19;;;;;;;24.43;3.08;;;;;;;7.76;100.00;100657.47;1714501;83;21059;-51
2021/09/22 07:25:47;;;;;;;4.47;2.17;;;;;;;7.72;100.00;100664.80;1739858;82;20949;-52
2021/09/22 07:28:13;;;;;;;13.68;2.70;;;;;;;7.72;100.00;100658.35;1716483;82;20880;-52
2021/09/22 07:30:42;;;;;;;2.85;2.00;;;;;;;7.73;100.00;100657.48;1785505;79;20894;-51
2021/09/22 07:33:09;;;;;;;12.65;1.98;;;;;;;7.84;100.00;100663.02;1751916;79;21053;-51
2021/09/22 07:35:35;;;;;;;7.25;2.12;;;;;;;7.91;100.00;100660.84;1781523;79;20971;-51
2021/09/22 07:38:02;;;;;;;5.50;2.17;;;;;;;7.96;100.00;100658.25;1767067;80;21105;-51
2021/09/22 07:40:29;;;;;;;7.22;1.75;;;;;;;7.99;100.00;100660.39;1767063;80;20916;-52
2021/09/22 07:42:57;;;;;;;1.60;1.50;;;;;;;7.97;100.00;100659.55;1777375;79;21478;-51
2021/09/22 07:45:24;;;;;;;1.50;1.40;;;;;;;7.96;100.00;100659.12;1791427;79;20945;-51
2021/09/22 07:47:51;;;;;;;1.22;1.10;;;;;;;7.94;100.00;100660.82;1716095;82;21015;-51
2021/09/22 07:50:17;;;;;;;1.67;0.95;;;;;;;7.96;100.00;100664.70;1793588;79;21101;-52
2021/09/22 07:52:45;;;;;;;12.85;1.75;;;;;;;7.91;100.00;100663.00;1703934;83;21542;-51
2021/09/22 07:55:12;;;;;;;7.55;1.22;;;;;;;7.88;100.00;100662.14;1734861;82;21487;-52
2021/09/22 07:57:38;;;;;;;0.60;0.60;;;;;;;7.89;100.00;100665.14;1735615;82;21008;-51
2021/09/22 08:00:07;;;;;;;3.22;0.90;;;;;;;7.95;100.00;100669.42;1785663;79;20933;-52
2021/09/22 08:02:35;;;;;;;4.33;1.40;;;;;;;7.94;100.00;100665.97;1771380;79;21145;-52
2021/09/22 08:05:02;;;;;;;2.05;1.27;;;;;;;7.90;100.00;100662.99;1714982;83;20978;-52
2021/09/22 08:07:30;;;;;;;1.40;1.30;;;;;;;7.93;100.00;100665.55;1730442;82;20892;-52
2021/09/22 08:09:57;;;;;;;10.05;1.87;;;;;;;8.01;100.00;100670.68;1715559;82;20888;-52
2021/09/22 08:12:24;;;;;;;4.20;0.70;;;;;;;8.01;100.00;100669.39;1737499;82;20988;-52
2021/09/22 08:14:50;;;;;;;4.75;1.70;;;;;;;7.99;100.00;100669.42;1696037;83;21151;-52
2021/09/22 08:17:19;;;;;;;3.75;1.67;;;;;;;7.96;100.00;100670.72;1729170;82;21040;-52
2021/09/22 08:19:45;;;;;;;10.98;1.92;;;;;;;7.89;100.00;100672.46;1728271;82;20924;-52
2021/09/22 08:22:12;;;;;;;7.37;1.10;;;;;;;7.87;100.00;100672.03;1735039;82;20897;-52
2021/09/22 08:24:39;;;;;;;6.78;1.32;;;;;;;7.77;99.23;100673.77;1677370;83;21008;-51
2021/09/22 08:27:05;;;;;;;7.10;1.20;;;;;;;7.72;99.71;100674.23;1776253;79;21089;-52
2021/09/22 08:29:33;;;;;;;1.67;0.98;;;;;;;7.76;100.00;100665.62;1781800;80;21051;-52
2021/09/22 08:32:00;;;;;;;3.98;1.22;;;;;;;7.76;100.00;100663.91;1776133;80;21056;-52
2021/09/22 08:36:20;;;;;;;3.95;1.00;;;;;;;7.91;100.00;100662.12;1816199;79;22504;-51
2021/09/22 08:38:46;;;;;;;1.12;0.98;;;;;;;8.01;100.00;100668.10;1789084;80;20884;-52
2021/09/22 08:41:13;;;;;;;0.47;0.47;;;;;;;8.11;100.00;100663.77;1789189;80;21045;-52
2021/09/22 08:43:41;;;;;;;3.42;0.98;;;;;;;8.26;100.00;100664.11;1758233;80;20955;-52
2021/09/22 08:46:07;;;;;;;11.93;1.30;;;;;;;8.36;100.00;100664.92;1789086;80;21422;-51
2021/09/22 08:48:35;;;;;;;10.58;1.30;;;;;;;8.34;100.00;100659.79;1789187;80;21496;-52
2021/09/22 08:51:03;;;;;;;2.12;1.00;;;;;;;8.26;99.88;100655.96;1789184;80;21457;-52
2021/09/22 08:53:31;;;;;;;6.05;1.67;;;;;;;8.24;99.88;100660.69;1789307;80;21925;-52
2021/09/22 08:55:57;;;;;;;12.05;1.87;;;;;;;8.19;99.76;100656.84;1789091;80;20976;-52
2021/09/22 08:58:23;;;;;;;6.87;1.42;;;;;;;8.03;99.34;100656.93;1789336;80;21022;-52
2021/09/22 09:00:50;;;;;;;7.55;1.70;;;;;;;7.99;100.00;100659.11;1789194;80;20928;-51
2021/09/22 09:03:40;;;;;;;1.42;1.12;;;;;;;8.00;100.00;100653.09;1789417;80;20932;-51
2021/09/22 09:06:25;;;;;;;9.80;1.50;;;;;;;8.02;100.00;100651.35;1786433;80;21151;-52
2021/09/22 09:08:57;;;;;;;7.65;1.60;;;;;;;8.08;100.00;100650.89;1789121;80;20901;-52
2021/09/22 09:11:32;;;;;;;11.75;1.80;;;;;;;8.12;100.00;100653.45;1789175;80;20979;-51
2021/09/22 09:14:02;;;;;;;1.12;1.00;;;;;;;8.23;100.00;100648.24;1789055;80;21552;-52
2021/09/22 09:16:43;;;;;;;1.00;1.00;;;;;;;8.31;100.00;100648.17;1783107;80;20983;-52
2021/09/22 09:19:21;;;;;;;2.80;1.30;;;;;;;8.34;100.00;100645.16;1760615;80;21486;-52
2021/09/22 09:22:02;;;;;;;4.30;1.00;;;;;;;8.32;100.00;100646.89;1760462;81;20932;-51
2021/09/22 09:24:45;;;;;;;2.75;0.90;;;;;;;8.26;99.87;100640.91;1760330;81;21529;-52
2021/09/22 09:27:30;;;;;;;3.52;1.20;;;;;;;8.32;100.00;100639.56;1760282;81;21090;-51
2021/09/22 09:29:55;;;;;;;8.10;1.82;;;;;;;8.29;100.00;100640.46;1760587;81;20961;-52
2021/09/22 09:32:28;;;;;;;1.22;1.12;;;;;;;8.29;100.00;100640.46;1760439;81;21175;-53
2021/09/22 09:35:17;;;;;;;1.50;1.10;;;;;;;8.24;99.94;100643.52;1723826;82;20977;-51
2021/09/22 09:37:47;;;;;;;1.35;1.30;;;;;;;8.15;99.84;100641.83;1736619;82;20980;-53
2021/09/22 09:40:28;;;;;;;11.45;1.70;;;;;;;8.18;100.00;100649.55;1736699;82;20976;-53
2021/09/22 09:43:08;;;;;;;5.40;1.80;;;;;;;8.11;99.13;100645.30;1736619;82;20973;-52
2021/09/22 09:45:42;;;;;;;5.00;2.40;;;;;;;8.02;99.48;100650.06;1736574;82;20964;-51
2021/09/22 09:48:12;;;;;;;1.70;1.60;;;;;;;8.03;100.00;100649.20;1735217;82;21478;-52
2021/09/22 09:50:46;;;;;;;10.75;2.10;;;;;;;8.12;100.00;100650.00;1736143;82;21506;-52
2021/09/22 09:53:36;;;;;;;2.25;1.67;;;;;;;8.15;100.00;100655.14;1736039;82;21471;-52
2021/09/22 09:56:06;;;;;;;14.70;2.47;;;;;;;8.18;100.00;100653.41;1736374;82;21562;-52
2021/09/22 09:58:41;;;;;;;10.08;3.12;;;;;;;8.19;100.00;100650.39;1736002;82;21085;-53
2021/09/22 10:01:08;;;;;;;6.60;2.80;;;;;;;8.21;100.00;100651.27;1736503;82;21510;-51
2021/09/22 10:03:34;;;;;;;3.90;2.20;;;;;;;8.27;100.00;100648.64;1733409;82;21533;-51
2021/09/22 10:06:02;;;;;;;15.93;2.45;;;;;;;8.29;100.00;100654.65;1736056;81;21012;-51
2021/09/22 10:08:29;;;;;;;10.70;3.50;;;;;;;8.26;99.36;100650.80;1736403;82;20877;-51
2021/09/22 10:10:56;;;;;;;22.07;4.40;;;;;;;8.26;99.51;100651.22;1736522;82;21047;-51
2021/09/22 10:13:24;;;;;;;14.78;4.00;;;;;;;8.26;99.73;100653.80;1736077;82;20944;-52
2021/09/22 10:15:50;;;;;;;5.67;3.25;;;;;;;8.24;99.56;100651.25;1736062;82;20882;-52
2021/09/22 10:18:19;;;;;;;12.30;3.10;;;;;;;8.28;100.00;100655.52;1735950;82;20996;-53
2021/09/22 10:20:48;;;;;;;5.67;3.40;;;;;;;8.29;99.44;100652.48;1736329;82;20961;-53
2021/09/22 10:23:15;;;;;;;14.75;4.78;;;;;;;8.26;99.53;100646.94;1708837;82;21024;-52
2021/09/22 10:25:45;;;;;;;7.40;3.45;;;;;;;8.22;100.00;100649.53;1736000;82;20885;-52
2021/09/22 10:28:13;;;;;;;7.95;3.08;;;;;;;8.23;100.00;100649.53;1709561;82;21549;-52
2021/09/22 10:30:44;;;;;;;6.45;3.22;;;;;;;8.21;100.00;100640.95;1708947;82;20941;-53
2021/09/22 10:33:29;;;;;;;9.65;3.00;;;;;;;8.13;100.00;100647.44;1736142;81;20993;-53
2021/09/22 10:36:00;;;;;;;6.37;3.27;;;;;;;8.09;100.00;100650.90;1742189;81;21040;-51
2021/09/22 10:38:33;;;;;;;6.92;2.50;;;;;;;7.98;100.00;100652.23;1746535;82;21506;-52
2021/09/22 10:41:01;;;;;;;9.98;2.67;;;;;;;7.99;100.00;100650.50;1725812;82;21493;-52
2021/09/22 10:43:39;;;;;;;9.35;2.92;;;;;;;8.01;100.00;100653.51;1725191;82;21518;-52
2021/09/22 10:46:13;;;;;;;2.80;2.70;;;;;;;8.04;100.00;100649.63;1725503;82;21636;-53
2021/09/22 10:49:01;;;;;;;2.27;2.08;;;;;;;8.03;100.00;100647.04;1746667;82;21108;-51
2021/09/22 10:51:37;;;;;;;2.45;2.30;;;;;;;7.94;100.00;100648.38;1746539;82;21375;-52
2021/09/22 10:54:12;;;;;;;2.72;2.62;;;;;;;7.97;100.00;100654.39;1746887;82;20976;-53
2021/09/22 10:57:00;;;;;;;3.37;2.50;;;;;;;7.96;100.00;100654.38;1747122;82;20964;-52
2021/09/22 10:59:39;;;;;;;4.50;2.52;;;;;;;7.90;100.00;100655.26;1746657;82;21755;-53
2021/09/22 11:02:08;;;;;;;3.98;3.60;;;;;;;7.87;100.00;100654.86;1746846;82;21065;-52
2021/09/22 11:05:01;;;;;;;3.75;2.40;;;;;;;7.82;100.00;100652.70;1746892;81;20932;-52
2021/09/22 11:07:56;;;;;;;2.58;2.45;;;;;;;7.83;100.00;100652.28;1746429;82;21427;-53
2021/09/22 11:10:53;;;;;;;2.40;2.20;;;;;;;7.80;100.00;100649.28;1746736;81;21478;-52
2021/09/22 11:13:26;;;;;;;4.87;2.60;;;;;;;7.72;100.00;100645.47;1746875;82;21071;-52
2021/09/22 11:16:08;;;;;;;2.92;2.72;;;;;;;7.68;100.00;100639.88;1746898;82;20925;-52
2021/09/22 11:18:40;;;;;;;2.50;2.40;;;;;;;7.71;100.00;100636.44;1746611;82;20964;-52
2021/09/22 11:21:06;;;;;;;2.77;2.58;;;;;;;7.76;100.00;100636.86;1746791;81;21015;-52
2021/09/22 11:23:34;;;;;;;2.22;2.12;;;;;;;7.88;100.00;100638.53;1746493;82;20933;-51
2021/09/22 11:26:08;;;;;;;2.02;1.92;;;;;;;7.96;100.00;100639.79;1746658;82;20940;-51
2021/09/22 11:28:36;;;;;;;1.90;1.80;;;;;;;8.08;100.00;100634.13;1746761;82;22051;-52
2021/09/22 11:31:03;;;;;;;3.60;3.30;;;;;;;8.13;100.00;100629.80;1746604;82;21011;-52
2021/09/22 11:33:30;;;;;;;2.50;2.40;;;;;;;8.17;100.00;100629.78;1746554;82;21074;-51
2021/09/22 11:36:07;;;;;;;2.55;2.35;;;;;;;8.18;100.00;100630.63;1746367;81;21482;-52
2021/09/22 11:38:35;;;;;;;4.08;2.20;;;;;;;8.12;100.00;100627.67;1746695;82;20980;-52
2021/09/22 11:41:01;;;;;;;4.25;3.08;;;;;;;8.04;100.00;100629.41;1746612;82;21197;-52
2021/09/22 11:43:28;;;;;;;8.40;3.37;;;;;;;7.92;100.00;100630.33;1725302;82;20991;-52
2021/09/22 11:45:59;;;;;;;4.47;3.40;;;;;;;7.74;100.00;100621.84;1746754;82;21038;-52